createdAt,value
2019-05-23T00:02:12.096Z,81.16
2019-05-23T00:05:01.567Z,80.99
2019-05-23T00:07:50.788Z,80.87
2019-05-23T00:10:40.683Z,81.18
2019-05-23T00:13:51.276Z,81.24
2019-05-23T00:16:23.369Z,81.03
2019-05-23T00:18:53.693Z,81.17
2019-05-23T00:21:25.111Z,80.74
2019-05-23T00:23:59.075Z,80.62
2019-05-23T00:26:30.083Z,81.26
2019-05-23T00:29:09.983Z,81.31
2019-05-23T00:31:38.357Z,82.00
2019-05-23T00:34:10.325Z,82.79
2019-05-23T00:36:42.935Z,82.84
2019-05-23T00:39:15.577Z,83.30
2019-05-23T00:41:46.907Z,84.26
2019-05-23T00:44:23.514Z,84.48
2019-05-23T00:46:54.653Z,84.42
2019-05-23T00:49:27.319Z,84.26
2019-05-23T00:51:57.402Z,84.02
2019-05-23T00:54:28.256Z,84.09
2019-05-23T00:57:02.366Z,83.94
2019-05-23T00:59:35.644Z,83.91
2019-05-23T01:02:12.381Z,84.07
2019-05-23T01:04:46.119Z,83.77
2019-05-23T01:07:17.252Z,83.47
2019-05-23T01:09:48.083Z,83.25
2019-05-23T01:12:18.246Z,83.06
2019-05-23T01:14:48.414Z,82.53
2019-05-23T01:17:20.740Z,82.20
2019-05-23T01:19:52.837Z,82.38
2019-05-23T01:22:23.876Z,82.78
2019-05-23T01:24:55.574Z,82.71
2019-05-23T01:27:25.824Z,82.85
2019-05-23T01:29:58.298Z,83.38
2019-05-23T01:32:31.476Z,83.16
2019-05-23T01:35:02.069Z,83.36
2019-05-23T01:37:32.454Z,83.08
2019-05-23T01:40:07.761Z,82.76
2019-05-23T01:42:44.536Z,82.59
2019-05-23T01:45:17.696Z,83.21
2019-05-23T01:47:49.307Z,82.86
2019-05-23T01:50:23.494Z,82.47
2019-05-23T01:52:54.198Z,83.13
2019-05-23T01:55:24.544Z,82.57
2019-05-23T01:57:55.835Z,82.74
2019-05-23T02:00:30.756Z,81.78
2019-05-23T02:03:01.104Z,81.63
2019-05-23T02:05:33.171Z,82.15
2019-05-23T02:08:04.092Z,82.41
2019-05-23T02:10:34.394Z,82.28
2019-05-23T02:13:04.840Z,83.39
2019-05-23T02:15:34.921Z,84.12
2019-05-23T02:18:06.282Z,84.92
2019-05-23T02:20:37.134Z,84.85
2019-05-23T02:23:07.875Z,84.82
2019-05-23T02:25:39.692Z,84.36
2019-05-23T02:28:10.143Z,84.39
2019-05-23T02:30:40.801Z,84.09
2019-05-23T02:33:12.519Z,83.46
2019-05-23T02:35:47.702Z,82.46
2019-05-23T02:38:27.158Z,83.12
2019-05-23T02:41:01.815Z,82.40
2019-05-23T02:43:35.380Z,82.40
2019-05-23T02:46:09.564Z,82.28
2019-05-23T02:48:43.611Z,82.30
2019-05-23T02:51:28.394Z,82.47
2019-05-23T02:54:01.898Z,82.48
2019-05-23T02:56:38.737Z,82.16
2019-05-23T02:59:39.278Z,82.63
2019-05-23T03:02:37.950Z,82.04
2019-05-23T03:05:14.363Z,82.40
2019-05-23T03:07:45.334Z,82.56
2019-05-23T03:10:18.656Z,82.20
2019-05-23T03:12:49.574Z,82.01
2019-05-23T03:15:25.043Z,82.47
2019-05-23T03:18:00.543Z,81.62
2019-05-23T03:20:30.879Z,81.87
2019-05-23T03:23:04.190Z,82.26
2019-05-23T03:25:38.271Z,82.09
2019-05-23T03:28:14.059Z,82.59
2019-05-23T03:31:26.551Z,82.04
2019-05-23T03:33:39.296Z,82.34
2019-05-23T03:36:10.145Z,82.40
2019-05-23T03:38:41.130Z,82.81
2019-05-23T03:41:15.873Z,83.32
2019-05-23T03:43:48.697Z,83.14
2019-05-23T03:46:23.827Z,82.89
2019-05-23T03:48:54.474Z,82.95
2019-05-23T03:51:25.306Z,82.92
2019-05-23T03:53:56.967Z,82.73
2019-05-23T03:56:28.572Z,82.93
2019-05-23T03:59:00.622Z,83.01
2019-05-23T04:01:47.209Z,82.50
2019-05-23T04:04:07.459Z,82.68
2019-05-23T04:06:38.192Z,82.73
2019-05-23T04:09:09.956Z,82.16
2019-05-23T04:11:40.143Z,82.28
2019-05-23T04:14:13.603Z,81.98
2019-05-23T04:16:43.681Z,82.00
2019-05-23T04:19:13.673Z,82.23
2019-05-23T04:21:48.362Z,82.11
2019-05-23T04:24:21.183Z,81.76
2019-05-23T04:26:58.834Z,81.38
2019-05-23T04:29:29.301Z,81.23
2019-05-23T04:32:07.776Z,81.68
2019-05-23T04:34:33.991Z,81.45
2019-05-23T04:37:04.218Z,81.59
2019-05-23T04:39:34.698Z,80.94
2019-05-23T04:42:05.498Z,81.51
2019-05-23T04:44:43.818Z,81.78
2019-05-23T04:47:10.241Z,81.47
2019-05-23T04:49:40.617Z,81.16
2019-05-23T04:52:11.433Z,81.46
2019-05-23T04:54:42.185Z,81.55
2019-05-23T04:57:14.541Z,81.46
2019-05-23T04:59:44.792Z,81.51
2019-05-23T05:02:25.727Z,81.35
2019-05-23T05:04:48.590Z,81.35
2019-05-23T05:07:19.042Z,81.32
2019-05-23T05:09:50.951Z,81.13
2019-05-23T05:12:21.161Z,81.30
2019-05-23T05:14:52.016Z,81.00
2019-05-23T05:17:22.353Z,80.81
2019-05-23T05:19:52.709Z,80.63
2019-05-23T05:22:22.963Z,80.80
2019-05-23T05:24:56.266Z,80.26
2019-05-23T05:27:26.564Z,79.60
2019-05-23T05:29:56.767Z,79.18
2019-05-23T05:32:43.314Z,79.10
2019-05-23T05:34:59.612Z,78.40
2019-05-23T05:37:33.105Z,78.26
2019-05-23T05:40:04.620Z,77.50
2019-05-23T05:42:38.110Z,77.99
2019-05-23T05:45:10.435Z,78.30
2019-05-23T05:47:41.024Z,78.34
2019-05-23T05:50:12.978Z,78.52
2019-05-23T05:52:43.410Z,79.12
2019-05-23T05:55:13.837Z,79.91
2019-05-23T05:57:44.198Z,80.02
2019-05-23T06:00:21.346Z,80.27
2019-05-23T06:03:03.613Z,80.10
2019-05-23T06:05:34.311Z,79.84
2019-05-23T06:08:06.385Z,79.91
2019-05-23T06:10:36.697Z,79.15
2019-05-23T06:13:06.711Z,79.35
2019-05-23T06:15:36.832Z,78.92
2019-05-23T06:18:07.366Z,78.14
2019-05-23T06:20:43.159Z,77.50
2019-05-23T06:23:13.723Z,77.54
2019-05-23T06:25:43.758Z,77.19
2019-05-23T06:28:15.979Z,76.94
2019-05-23T06:30:46.459Z,77.53
2019-05-23T06:33:23.267Z,77.03
2019-05-23T06:35:51.580Z,76.44
2019-05-23T06:38:21.312Z,75.58
2019-05-23T06:40:51.882Z,74.72
2019-05-23T06:43:22.623Z,75.04
2019-05-23T06:45:53.267Z,74.62
2019-05-23T06:48:24.322Z,74.00
2019-05-23T06:50:54.404Z,73.67
2019-05-23T06:53:24.610Z,68.93
2019-05-23T06:55:54.685Z,68.60
2019-05-23T06:58:26.305Z,67.44
2019-05-23T07:00:57.485Z,67.74
2019-05-23T07:03:41.846Z,68.07
2019-05-23T07:06:00.621Z,66.84
2019-05-23T07:08:33.605Z,66.40
2019-05-23T07:11:03.789Z,64.98
2019-05-23T07:13:35.143Z,64.69
2019-05-23T07:16:05.913Z,64.52
2019-05-23T07:18:36.019Z,65.05
2019-05-23T07:21:07.686Z,65.13
2019-05-23T07:23:38.062Z,64.28
2019-05-23T07:26:08.701Z,62.30
2019-05-23T07:28:38.810Z,62.89
2019-05-23T07:31:08.937Z,61.58
2019-05-23T07:33:39.097Z,60.24
2019-05-23T07:36:09.329Z,57.79
2019-05-23T07:38:39.466Z,55.12
2019-05-23T07:41:10.093Z,56.22
2019-05-23T07:43:40.620Z,54.84
2019-05-23T07:46:10.641Z,54.69
2019-05-23T07:48:41.295Z,53.81
2019-05-23T07:51:11.427Z,51.57
2019-05-23T07:53:44.233Z,49.56
2019-05-23T07:56:16.171Z,51.15
2019-05-23T07:58:46.360Z,51.21
2019-05-23T08:01:18.137Z,52.10
2019-05-23T08:03:51.867Z,52.20
2019-05-23T08:06:22.889Z,51.65
2019-05-23T08:08:53.337Z,50.18
2019-05-23T08:11:23.805Z,50.31
2019-05-23T08:13:54.842Z,48.19
2019-05-23T08:16:24.833Z,49.21
2019-05-23T08:18:55.429Z,48.54
2019-05-23T08:21:25.670Z,49.13
2019-05-23T08:23:55.832Z,47.80
2019-05-23T08:26:27.537Z,47.84
2019-05-23T08:29:24.250Z,46.53
2019-05-23T08:31:30.500Z,46.49
2019-05-23T08:34:01.261Z,44.96
2019-05-23T08:36:31.747Z,44.77
2019-05-23T08:39:03.675Z,45.50
2019-05-23T08:41:34.894Z,45.56
2019-05-23T08:44:06.800Z,44.28
2019-05-23T08:46:37.602Z,42.73
2019-05-23T08:49:08.992Z,42.85
2019-05-23T08:51:39.216Z,43.28
2019-05-23T08:54:09.252Z,42.84
2019-05-23T08:56:39.755Z,41.73
2019-05-23T08:59:10.808Z,42.25
2019-05-23T09:01:40.821Z,40.77
2019-05-23T09:04:11.100Z,42.04
2019-05-23T09:06:42.448Z,42.59
2019-05-23T09:09:28.434Z,41.13
2019-05-23T09:11:45.066Z,40.83
2019-05-23T09:14:15.383Z,39.17
2019-05-23T09:16:45.731Z,39.65
2019-05-23T09:19:16.145Z,38.28
2019-05-23T09:21:46.508Z,38.35
2019-05-23T09:24:16.567Z,39.24
2019-05-23T09:26:46.854Z,40.94
2019-05-23T09:29:18.196Z,38.79
2019-05-23T09:31:48.833Z,37.30
2019-05-23T09:34:19.069Z,38.46
2019-05-23T09:36:49.089Z,37.48
2019-05-23T09:39:20.959Z,38.70
2019-05-23T09:41:53.960Z,37.63
2019-05-23T09:44:23.951Z,36.54
2019-05-23T09:46:53.970Z,37.24
2019-05-23T09:49:24.596Z,36.07
2019-05-23T09:51:59.326Z,35.63
2019-05-23T09:54:26.936Z,36.24
2019-05-23T09:56:57.559Z,35.09
2019-05-23T09:59:27.757Z,34.30
2019-05-23T10:01:59.315Z,34.45
2019-05-23T10:04:29.253Z,35.88
2019-05-23T10:06:59.341Z,33.49
2019-05-23T10:09:29.624Z,33.60
2019-05-23T10:11:59.643Z,33.57
2019-05-23T10:14:37.066Z,32.80
2019-05-23T10:17:07.193Z,33.41
2019-05-23T10:19:37.667Z,32.27
2019-05-23T10:22:08.393Z,32.40
2019-05-23T10:24:38.486Z,33.53
2019-05-23T10:27:13.679Z,32.37
2019-05-23T10:29:43.757Z,34.50
2019-05-23T10:32:14.282Z,31.94
2019-05-23T10:34:44.739Z,30.99
2019-05-23T10:37:16.634Z,31.64
2019-05-23T10:39:49.857Z,32.53
2019-05-23T10:42:21.586Z,33.75
2019-05-23T10:44:51.836Z,33.24
2019-05-23T10:47:21.906Z,34.78
2019-05-23T10:49:52.086Z,34.07
2019-05-23T10:52:22.223Z,32.83
2019-05-23T10:54:52.386Z,34.89
2019-05-23T10:57:23.051Z,32.49
2019-05-23T10:59:53.212Z,31.72
2019-05-23T11:02:26.866Z,30.57
2019-05-23T11:04:55.681Z,31.40
2019-05-23T11:07:25.687Z,30.47
2019-05-23T11:09:55.850Z,30.65
2019-05-23T11:12:26.233Z,31.12
2019-05-23T11:14:56.468Z,30.85
2019-05-23T11:17:26.468Z,31.66
2019-05-23T11:19:56.536Z,31.58
2019-05-23T11:22:26.990Z,33.26
2019-05-23T11:24:59.489Z,33.48
2019-05-23T11:27:29.968Z,33.38
2019-05-23T11:30:00.047Z,34.18
2019-05-23T11:32:30.477Z,32.08
2019-05-23T11:35:00.766Z,32.18
2019-05-23T11:37:30.769Z,32.73
2019-05-23T11:40:00.845Z,32.73
2019-05-23T11:42:30.844Z,33.41
2019-05-23T11:45:02.073Z,31.22
2019-05-23T11:47:32.435Z,32.24
2019-05-23T11:50:05.127Z,31.43
2019-05-23T11:52:35.554Z,31.84
2019-05-23T11:55:09.114Z,30.41
2019-05-23T11:57:39.388Z,30.92
2019-05-23T12:00:12.078Z,30.77
2019-05-23T12:02:43.962Z,29.84
2019-05-23T12:05:18.310Z,30.55
2019-05-23T12:07:48.571Z,30.41
2019-05-23T12:10:19.060Z,34.10
2019-05-23T12:12:49.154Z,31.21
2019-05-23T12:15:24.031Z,32.06
2019-05-23T12:17:54.846Z,31.04
2019-05-23T12:20:25.325Z,30.99
2019-05-23T12:22:55.451Z,31.35
2019-05-23T12:25:27.181Z,31.14
2019-05-23T12:27:57.460Z,27.87
2019-05-23T12:30:27.924Z,30.14
2019-05-23T12:32:57.938Z,29.94
2019-05-23T12:35:28.018Z,31.17
2019-05-23T12:38:02.443Z,32.53
2019-05-23T12:40:29.798Z,31.55
2019-05-23T12:42:59.914Z,29.78
2019-05-23T12:45:29.967Z,31.24
2019-05-23T12:48:07.491Z,31.56
2019-05-23T12:50:39.220Z,30.15
2019-05-23T12:53:11.094Z,31.40
2019-05-23T12:55:42.842Z,29.90
2019-05-23T12:58:12.838Z,29.82
2019-05-23T13:00:45.141Z,31.02
2019-05-23T13:03:15.644Z,29.33
2019-05-23T13:05:46.165Z,30.72
2019-05-23T13:08:19.216Z,29.63
2019-05-23T13:10:49.321Z,30.20
2019-05-23T13:13:19.681Z,30.86
2019-05-23T13:15:49.819Z,29.95
2019-05-23T13:18:20.178Z,28.06
2019-05-23T13:20:50.324Z,30.02
2019-05-23T13:23:21.566Z,31.82
2019-05-23T13:25:52.755Z,31.41
2019-05-23T13:28:23.157Z,31.16
2019-05-23T13:30:53.470Z,31.08
2019-05-23T13:33:26.639Z,31.38
2019-05-23T13:35:56.998Z,30.76
2019-05-23T13:38:27.633Z,30.21
2019-05-23T13:40:57.723Z,30.79
2019-05-23T13:43:28.160Z,29.97
2019-05-23T13:45:58.474Z,29.01
2019-05-23T13:48:29.541Z,28.45
2019-05-23T13:50:59.735Z,28.04
2019-05-23T13:53:30.109Z,30.70
2019-05-23T13:56:03.506Z,29.53
2019-05-23T13:58:33.543Z,29.07
2019-05-23T14:01:08.834Z,29.37
2019-05-23T14:03:35.543Z,27.71
2019-05-23T14:06:07.378Z,28.72
2019-05-23T14:08:37.463Z,30.41
2019-05-23T14:11:07.912Z,30.29
2019-05-23T14:13:38.023Z,29.93
2019-05-23T14:16:09.362Z,30.32
2019-05-23T14:18:40.802Z,30.75
2019-05-23T14:21:10.769Z,30.92
2019-05-23T14:23:40.923Z,29.49
2019-05-23T14:26:11.429Z,28.25
2019-05-23T14:28:41.691Z,29.13
2019-05-23T14:31:15.907Z,30.37
2019-05-23T14:33:50.698Z,30.45
2019-05-23T14:36:34.089Z,30.87
2019-05-23T14:39:09.126Z,29.51
2019-05-23T14:41:46.540Z,30.18
2019-05-23T14:44:16.695Z,30.66
2019-05-23T14:47:04.986Z,31.06
2019-05-23T14:49:43.248Z,30.09
2019-05-23T14:52:30.383Z,31.24
2019-05-23T14:55:02.303Z,31.27
2019-05-23T14:57:33.400Z,32.51
2019-05-23T15:00:05.340Z,32.03
2019-05-23T15:02:36.293Z,30.89
2019-05-23T15:05:09.882Z,30.59
2019-05-23T15:07:39.954Z,31.94
2019-05-23T15:10:10.383Z,32.83
2019-05-23T15:12:41.518Z,31.23
2019-05-23T15:15:11.977Z,31.66
2019-05-23T15:17:41.972Z,30.51
2019-05-23T15:20:12.736Z,29.78
2019-05-23T15:22:42.767Z,29.81
2019-05-23T15:25:16.320Z,30.83
2019-05-23T15:27:46.540Z,30.34
2019-05-23T15:30:17.467Z,31.28
2019-05-23T15:32:47.616Z,31.30
2019-05-23T15:35:17.877Z,30.73
2019-05-23T15:37:47.915Z,29.86
2019-05-23T15:40:18.741Z,32.85
2019-05-23T15:42:51.418Z,33.77
2019-05-23T15:45:21.424Z,31.78
2019-05-23T15:47:51.984Z,31.04
2019-05-23T15:50:24.575Z,35.01
2019-05-23T15:53:08.113Z,34.28
2019-05-23T15:55:42.853Z,36.06
2019-05-23T15:58:16.386Z,34.40
2019-05-23T16:01:03.962Z,33.07
2019-05-23T16:03:44.580Z,33.02
2019-05-23T16:06:19.217Z,33.01
2019-05-23T16:08:49.477Z,33.66
2019-05-23T16:11:19.646Z,36.54
2019-05-23T16:13:49.639Z,36.07
2019-05-23T16:16:19.903Z,36.11
2019-05-23T16:18:50.376Z,35.08
2019-05-23T16:21:21.475Z,34.10
2019-05-23T16:23:51.664Z,33.78
2019-05-23T16:26:21.722Z,35.32
2019-05-23T16:28:52.405Z,34.78
2019-05-23T16:31:22.502Z,34.72
2019-05-23T16:33:52.581Z,33.00
2019-05-23T16:36:22.649Z,33.64
2019-05-23T16:38:52.724Z,35.06
2019-05-23T16:41:22.812Z,35.08
2019-05-23T16:43:53.075Z,35.84
2019-05-23T16:46:23.234Z,35.43
2019-05-23T16:48:54.137Z,34.80
2019-05-23T16:51:25.891Z,35.40
2019-05-23T16:53:56.684Z,34.17
2019-05-23T16:56:44.036Z,34.08
2019-05-23T16:59:18.448Z,33.44
2019-05-23T17:02:06.424Z,34.47
2019-05-23T17:04:43.999Z,35.93
2019-05-23T17:07:27.910Z,37.08
2019-05-23T17:10:08.872Z,36.98
2019-05-23T17:12:41.702Z,36.12
2019-05-23T17:15:25.677Z,37.56
2019-05-23T17:18:03.340Z,37.95
2019-05-23T17:20:40.145Z,37.87
2019-05-23T17:23:12.138Z,37.37
2019-05-23T17:25:43.874Z,39.27
2019-05-23T17:28:31.097Z,37.58
2019-05-23T17:31:05.831Z,37.25
2019-05-23T17:33:37.103Z,38.07
2019-05-23T17:36:07.413Z,39.36
2019-05-23T17:38:37.687Z,39.52
2019-05-23T17:41:08.046Z,40.01
2019-05-23T17:43:38.227Z,39.80
2019-05-23T17:46:10.981Z,39.68
2019-05-23T17:48:44.567Z,39.63
2019-05-23T17:51:15.688Z,39.68
2019-05-23T17:53:53.853Z,39.25
2019-05-23T17:56:25.124Z,39.72
2019-05-23T17:58:55.203Z,40.16
2019-05-23T18:01:27.099Z,39.58
2019-05-23T18:03:57.415Z,42.40
2019-05-23T18:06:27.556Z,41.59
2019-05-23T18:09:00.515Z,41.80
2019-05-23T18:11:30.977Z,42.38
2019-05-23T18:14:01.433Z,43.81
2019-05-23T18:16:31.863Z,44.07
2019-05-23T18:19:04.373Z,42.02
2019-05-23T18:21:35.106Z,42.00
2019-05-23T18:24:06.390Z,41.67
2019-05-23T18:26:36.736Z,41.54
2019-05-23T18:29:09.789Z,41.40
2019-05-23T18:31:41.777Z,41.47
2019-05-23T18:34:11.866Z,41.62
2019-05-23T18:36:42.759Z,41.14
2019-05-23T18:39:16.269Z,40.86
2019-05-23T18:41:46.438Z,40.08
2019-05-23T18:44:17.616Z,38.81
2019-05-23T18:46:55.327Z,40.65
2019-05-23T18:49:25.721Z,40.25
2019-05-23T18:51:59.058Z,42.85
2019-05-23T18:54:31.837Z,43.87
2019-05-23T18:57:02.284Z,44.91
2019-05-23T18:59:33.418Z,45.05
2019-05-23T19:02:03.669Z,45.61
2019-05-23T19:04:36.520Z,46.43
2019-05-23T19:07:11.554Z,46.62
2019-05-23T19:09:44.972Z,46.28
2019-05-23T19:12:15.614Z,46.84
2019-05-23T19:14:45.678Z,47.62
2019-05-23T19:17:15.981Z,47.86
2019-05-23T19:19:46.224Z,48.40
2019-05-23T19:22:16.700Z,48.71
2019-05-23T19:24:47.028Z,49.00
2019-05-23T19:27:17.764Z,50.26
2019-05-23T19:29:47.840Z,50.58
2019-05-23T19:32:18.416Z,51.84
2019-05-23T19:34:48.583Z,53.20
2019-05-23T19:37:18.774Z,54.14
2019-05-23T19:39:52.956Z,54.11
2019-05-23T19:42:23.510Z,54.76
2019-05-23T19:44:53.504Z,55.62
2019-05-23T19:47:28.801Z,56.46
2019-05-23T19:50:00.241Z,56.66
2019-05-23T19:52:30.620Z,56.48
2019-05-23T19:55:00.797Z,57.77
2019-05-23T19:57:32.138Z,57.20
2019-05-23T20:00:06.271Z,57.88
2019-05-23T20:02:45.425Z,59.14
2019-05-23T20:05:29.227Z,59.59
2019-05-23T20:07:59.945Z,59.93
2019-05-23T20:10:31.172Z,60.14
2019-05-23T20:13:01.648Z,60.53
2019-05-23T20:15:34.482Z,60.29
2019-05-23T20:18:06.744Z,59.89
2019-05-23T20:20:39.119Z,59.72
2019-05-23T20:23:11.161Z,59.67
2019-05-23T20:25:41.663Z,59.92
2019-05-23T20:28:13.303Z,60.12
2019-05-23T20:30:47.576Z,60.14
2019-05-23T20:33:17.970Z,60.04
2019-05-23T20:35:48.423Z,59.80
2019-05-23T20:38:20.111Z,59.97
2019-05-23T20:40:53.282Z,60.01
2019-05-23T20:43:23.521Z,60.41
2019-05-23T20:45:53.718Z,60.09
2019-05-23T20:48:27.626Z,60.39
2019-05-23T20:50:58.040Z,60.70
2019-05-23T20:53:28.203Z,60.69
2019-05-23T20:55:58.283Z,60.97
2019-05-23T20:58:28.372Z,62.39
2019-05-23T21:01:00.190Z,63.34
2019-05-23T21:03:35.323Z,63.20
2019-05-23T21:06:05.988Z,62.57
2019-05-23T21:08:39.752Z,62.64
2019-05-23T21:11:10.274Z,62.67
2019-05-23T21:13:40.469Z,63.19
2019-05-23T21:16:10.511Z,63.23
2019-05-23T21:18:40.735Z,63.47
2019-05-23T21:21:11.218Z,63.56
2019-05-23T21:23:41.316Z,63.33
2019-05-23T21:26:13.812Z,62.74
2019-05-23T21:28:46.831Z,62.77
2019-05-23T21:31:18.472Z,62.10
2019-05-23T21:33:48.773Z,61.85
2019-05-23T21:36:18.865Z,61.34
2019-05-23T21:38:49.054Z,61.30
2019-05-23T21:41:19.220Z,61.28
2019-05-23T21:43:50.872Z,61.19
2019-05-23T21:46:20.862Z,60.97
2019-05-23T21:48:51.238Z,61.25
2019-05-23T21:51:21.370Z,61.01
2019-05-23T21:53:51.461Z,61.88
2019-05-23T21:56:21.582Z,62.29
2019-05-23T21:58:51.765Z,61.99
2019-05-23T22:01:25.345Z,61.98
2019-05-23T22:03:57.286Z,61.75
2019-05-23T22:06:43.979Z,61.79
2019-05-23T22:09:14.282Z,61.65
2019-05-23T22:11:44.718Z,61.42
2019-05-23T22:14:15.807Z,60.83
2019-05-23T22:16:45.910Z,60.95
2019-05-23T22:19:17.813Z,60.85
2019-05-23T22:21:48.441Z,60.94
2019-05-23T22:24:19.764Z,60.78
2019-05-23T22:26:49.895Z,61.29
2019-05-23T22:29:20.048Z,61.02
2019-05-23T22:31:50.176Z,60.84
2019-05-23T22:34:22.070Z,60.85
2019-05-23T22:36:53.175Z,60.97
2019-05-23T22:39:24.513Z,60.82
2019-05-23T22:41:54.667Z,60.91
2019-05-23T22:44:24.677Z,61.10
2019-05-23T22:46:54.847Z,61.21
2019-05-23T22:49:24.837Z,61.50
2019-05-23T22:51:54.913Z,61.73
2019-05-23T22:54:24.971Z,61.60
2019-05-23T22:56:55.062Z,62.00
2019-05-23T22:59:25.092Z,62.08
2019-05-23T23:01:55.223Z,62.26
2019-05-23T23:04:25.696Z,62.30
2019-05-23T23:06:55.696Z,62.52
2019-05-23T23:09:28.783Z,62.90
2019-05-23T23:11:59.416Z,63.46
2019-05-23T23:14:29.778Z,63.63
2019-05-23T23:17:00.021Z,63.92
2019-05-23T23:19:30.117Z,64.17
2019-05-23T23:22:00.196Z,64.89
2019-05-23T23:24:30.218Z,65.25
2019-05-23T23:27:00.221Z,65.63
2019-05-23T23:29:30.297Z,66.63
2019-05-23T23:32:04.061Z,66.36
2019-05-23T23:34:34.356Z,67.07
2019-05-23T23:37:04.450Z,67.66
2019-05-23T23:39:34.600Z,67.82
2019-05-23T23:42:06.021Z,68.07
2019-05-23T23:44:35.340Z,67.96
2019-05-23T23:47:24.150Z,67.25
2019-05-23T23:50:12.012Z,67.19
2019-05-23T23:53:03.031Z,66.81
2019-05-23T23:55:50.852Z,66.62
2019-05-23T23:58:20.541Z,67.16
